createdAt,value
2018-10-02T00:00:55.441Z,9.20
2018-10-02T00:03:23.430Z,9.20
2018-10-02T00:05:51.370Z,9.10
2018-10-02T00:08:19.310Z,9.00
2018-10-02T00:10:52.655Z,9.00
2018-10-02T00:13:26.093Z,9.00
2018-10-02T00:15:53.994Z,9.00
2018-10-02T00:18:21.949Z,8.90
2018-10-02T00:20:49.877Z,8.90
2018-10-02T00:23:17.776Z,8.90
2018-10-02T00:25:45.730Z,9.00
2018-10-02T00:28:13.617Z,8.90
2018-10-02T00:30:41.524Z,8.80
2018-10-02T00:33:09.478Z,8.80
2018-10-02T00:35:37.432Z,8.70
2018-10-02T00:38:05.310Z,8.60
2018-10-02T00:40:33.222Z,8.60
2018-10-02T00:43:01.167Z,8.50
2018-10-02T00:45:29.152Z,8.50
2018-10-02T00:47:57.072Z,8.50
2018-10-02T00:50:25.046Z,8.40
2018-10-02T00:52:53.217Z,8.40
2018-10-02T00:55:21.248Z,8.40
2018-10-02T00:57:49.125Z,8.50
2018-10-02T01:00:17.032Z,8.40
2018-10-02T01:02:44.942Z,8.50
2018-10-02T01:05:12.864Z,8.40
2018-10-02T01:07:40.816Z,8.40
2018-10-02T01:10:08.686Z,8.40
2018-10-02T01:12:36.590Z,8.30
2018-10-02T01:15:04.656Z,8.20
2018-10-02T01:17:32.558Z,8.30
2018-10-02T01:20:00.469Z,8.30
2018-10-02T01:22:28.382Z,8.30
2018-10-02T01:24:56.297Z,8.20
2018-10-02T01:27:24.181Z,8.30
2018-10-02T01:29:52.160Z,8.30
2018-10-02T01:32:20.060Z,8.20
2018-10-02T01:34:47.997Z,8.20
2018-10-02T01:37:15.929Z,8.20
2018-10-02T01:39:43.801Z,8.30
2018-10-02T01:42:11.759Z,8.30
2018-10-02T01:44:39.620Z,8.30
2018-10-02T01:49:42.126Z,8.20
2018-10-02T01:52:10.076Z,8.20
2018-10-02T01:54:38.005Z,8.10
2018-10-02T01:57:06.149Z,8.10
2018-10-02T01:59:34.046Z,8.10
2018-10-02T02:02:01.978Z,8.00
2018-10-02T02:04:29.956Z,8.00
2018-10-02T02:06:57.916Z,7.90
2018-10-02T02:09:25.860Z,7.90
2018-10-02T02:11:53.797Z,8.00
2018-10-02T02:14:21.746Z,7.90
2018-10-02T02:16:49.673Z,8.00
2018-10-02T02:19:17.607Z,8.00
2018-10-02T02:21:45.562Z,7.90
2018-10-02T02:24:13.477Z,7.80
2018-10-02T02:26:41.385Z,7.90
2018-10-02T02:29:09.267Z,7.90
2018-10-02T02:31:37.166Z,7.80
2018-10-02T02:34:05.113Z,7.80
2018-10-02T02:36:33.041Z,7.80
2018-10-02T02:39:00.935Z,7.80
2018-10-02T02:41:28.878Z,7.70
2018-10-02T02:43:56.800Z,7.70
2018-10-02T02:46:24.746Z,7.70
2018-10-02T02:48:58.209Z,7.60
2018-10-02T02:51:28.982Z,7.60
2018-10-02T02:53:56.935Z,7.60
2018-10-02T02:56:25.161Z,7.70
2018-10-02T02:58:53.078Z,7.60
2018-10-02T03:01:20.984Z,7.60
2018-10-02T03:03:48.913Z,7.60
2018-10-02T03:06:16.825Z,7.70
2018-10-02T03:08:44.850Z,7.70
2018-10-02T03:11:12.794Z,7.60
2018-10-02T03:13:40.709Z,7.40
2018-10-02T03:16:08.820Z,7.50
2018-10-02T03:18:36.784Z,7.40
2018-10-02T03:21:04.776Z,7.40
2018-10-02T03:23:32.741Z,7.50
2018-10-02T03:26:00.704Z,7.40
2018-10-02T03:28:28.693Z,7.50
2018-10-02T03:30:56.609Z,7.40
2018-10-02T03:33:24.541Z,7.40
2018-10-02T03:35:52.493Z,7.40
2018-10-02T03:38:20.367Z,7.30
2018-10-02T03:40:48.313Z,7.30
2018-10-02T03:43:16.240Z,7.40
2018-10-02T03:45:44.244Z,7.30
2018-10-02T03:48:12.196Z,7.20
2018-10-02T03:50:40.165Z,7.20
2018-10-02T03:53:08.130Z,7.10
2018-10-02T03:55:36.105Z,7.10
2018-10-02T03:58:04.089Z,7.10
2018-10-02T04:00:32.033Z,7.10
2018-10-02T04:02:59.998Z,6.90
2018-10-02T04:05:28.809Z,6.90
2018-10-02T04:07:56.741Z,6.80
2018-10-02T04:10:24.657Z,6.80
2018-10-02T04:12:53.076Z,6.80
2018-10-02T04:15:21.030Z,6.60
2018-10-02T04:17:48.950Z,6.60
2018-10-02T04:20:17.110Z,6.60
2018-10-02T04:22:45.128Z,6.60
2018-10-02T04:25:14.155Z,6.50
2018-10-02T04:27:42.188Z,6.60
2018-10-02T04:30:10.085Z,6.70
2018-10-02T04:32:38.066Z,6.60
2018-10-02T04:35:06.133Z,6.60
2018-10-02T04:37:34.069Z,6.60
2018-10-02T04:40:02.012Z,6.60
2018-10-02T04:42:29.968Z,6.60
2018-10-02T04:44:58.717Z,6.60
2018-10-02T04:47:27.410Z,6.50
2018-10-02T04:49:55.300Z,6.60
2018-10-02T04:52:24.320Z,6.50
2018-10-02T04:54:52.425Z,6.50
2018-10-02T04:57:20.295Z,6.50
2018-10-02T04:59:48.271Z,6.50
2018-10-02T05:02:16.293Z,6.40
2018-10-02T05:04:44.217Z,6.40
2018-10-02T05:07:12.336Z,6.40
2018-10-02T05:09:41.219Z,6.40
2018-10-02T05:12:09.133Z,6.30
2018-10-02T05:14:37.465Z,6.40
2018-10-02T05:17:05.429Z,6.40
2018-10-02T05:19:33.412Z,6.30
2018-10-02T05:22:01.318Z,6.50
2018-10-02T05:24:29.290Z,6.50
2018-10-02T05:26:57.225Z,6.40
2018-10-02T05:29:25.230Z,6.40
2018-10-02T05:31:53.349Z,6.40
2018-10-02T05:34:21.254Z,6.40
2018-10-02T05:43:48.222Z,6.40
2018-10-02T05:46:16.174Z,6.30
2018-10-02T05:48:44.106Z,6.40
2018-10-02T05:51:12.106Z,6.40
2018-10-02T05:53:40.029Z,6.40
2018-10-02T05:56:07.969Z,6.40
2018-10-02T05:58:35.885Z,6.50
2018-10-02T06:01:03.815Z,6.40
2018-10-02T06:03:31.681Z,6.50
2018-10-02T06:05:59.597Z,6.60
2018-10-02T06:08:27.636Z,6.60
2018-10-02T06:10:55.600Z,6.60
2018-10-02T06:13:23.614Z,6.60
2018-10-02T06:15:51.538Z,6.60
2018-10-02T06:18:19.452Z,6.70
2018-10-02T06:20:47.481Z,6.70
2018-10-02T06:23:15.437Z,6.70
2018-10-02T06:25:43.333Z,6.70
2018-10-02T06:28:11.265Z,6.70
2018-10-02T06:30:45.911Z,6.80
2018-10-02T06:33:13.845Z,6.70
2018-10-02T06:35:41.765Z,6.80
2018-10-02T06:38:09.708Z,6.80
2018-10-02T06:40:37.677Z,6.90
2018-10-02T06:43:05.686Z,6.90
2018-10-02T06:45:33.588Z,6.90
2018-10-02T06:48:01.554Z,7.00
2018-10-02T06:50:29.469Z,7.10
2018-10-02T06:52:57.377Z,7.10
2018-10-02T06:55:25.376Z,7.10
2018-10-02T06:57:53.277Z,7.20
2018-10-02T07:00:21.324Z,7.20
2018-10-02T07:02:49.251Z,7.30
2018-10-02T07:05:17.173Z,7.30
2018-10-02T07:07:45.079Z,7.30
2018-10-02T07:10:13.020Z,7.20
2018-10-02T07:12:41.006Z,7.30
2018-10-02T07:15:09.058Z,7.20
2018-10-02T07:17:37.071Z,7.30
2018-10-02T07:20:08.074Z,7.30
2018-10-02T07:22:36.258Z,7.40
2018-10-02T07:25:04.377Z,7.40
2018-10-02T07:27:32.542Z,7.50
2018-10-02T07:30:00.352Z,7.50
2018-10-02T07:32:28.328Z,7.50
2018-10-02T07:34:56.270Z,7.50
2018-10-02T07:37:24.206Z,7.60
2018-10-02T07:39:52.135Z,7.60
2018-10-02T07:42:20.091Z,7.50
2018-10-02T07:44:48.155Z,7.60
2018-10-02T07:47:16.042Z,7.60
2018-10-02T07:49:44.221Z,7.60
2018-10-02T07:52:12.132Z,7.60
2018-10-02T07:54:40.009Z,7.60
2018-10-02T07:57:07.967Z,7.70
2018-10-02T07:59:36.024Z,7.80
2018-10-02T08:02:03.925Z,7.90
2018-10-02T08:04:31.897Z,8.00
2018-10-02T08:06:59.848Z,8.00
2018-10-02T08:09:27.782Z,8.00
2018-10-02T08:11:55.775Z,8.00
2018-10-02T08:14:23.726Z,8.00
2018-10-02T08:16:51.666Z,8.10
2018-10-02T08:19:19.677Z,8.20
2018-10-02T08:21:47.707Z,8.20
2018-10-02T08:24:15.682Z,8.40
2018-10-02T08:26:43.730Z,8.40
2018-10-02T08:29:11.611Z,8.30
2018-10-02T08:31:39.578Z,8.30
2018-10-02T08:34:07.633Z,8.50
2018-10-02T08:36:35.584Z,8.40
2018-10-02T08:39:04.935Z,8.40
2018-10-02T08:41:32.881Z,8.50
2018-10-02T08:44:00.914Z,8.40
2018-10-02T08:46:28.831Z,8.50
2018-10-02T08:48:56.757Z,8.40
2018-10-02T08:51:24.727Z,8.50
2018-10-02T08:53:52.679Z,8.60
2018-10-02T08:56:20.567Z,8.60
2018-10-02T08:58:48.601Z,8.80
2018-10-02T09:01:16.562Z,8.90
2018-10-02T09:03:44.538Z,8.90
2018-10-02T09:06:12.511Z,9.00
2018-10-02T09:08:40.479Z,9.10
2018-10-02T09:11:08.471Z,9.30
2018-10-02T09:13:36.443Z,9.30
2018-10-02T09:16:05.348Z,9.20
2018-10-02T09:18:33.268Z,9.20
2018-10-02T09:21:01.262Z,9.20
2018-10-02T09:23:29.235Z,9.10
2018-10-02T09:25:57.204Z,9.00
2018-10-02T09:28:25.124Z,9.00
2018-10-02T09:30:58.806Z,8.90
2018-10-02T09:33:32.227Z,9.00
2018-10-02T09:36:05.657Z,9.00
2018-10-02T09:38:39.087Z,9.00
2018-10-02T09:41:12.624Z,9.10
2018-10-02T09:43:45.412Z,9.10
2018-10-02T09:46:13.360Z,9.00
2018-10-02T09:48:41.480Z,9.30
2018-10-02T09:51:09.374Z,9.40
2018-10-02T09:53:37.323Z,9.40
2018-10-02T09:56:05.354Z,9.50
2018-10-02T09:58:33.305Z,9.40
2018-10-02T10:01:09.733Z,9.40
2018-10-02T10:03:37.660Z,9.30
2018-10-02T10:06:05.964Z,9.30
2018-10-02T10:08:34.053Z,9.40
2018-10-02T10:11:01.990Z,9.40
2018-10-02T10:13:29.914Z,9.30
2018-10-02T10:15:57.819Z,9.40
2018-10-02T10:18:25.797Z,9.50
2018-10-02T10:20:53.759Z,9.70
2018-10-02T10:23:21.619Z,9.80
2018-10-02T10:25:49.611Z,9.90
2018-10-02T10:28:17.502Z,9.90
2018-10-02T10:30:45.495Z,10.00
2018-10-02T10:33:13.567Z,10.20
2018-10-02T10:35:41.617Z,10.30
2018-10-02T10:38:09.638Z,10.20
2018-10-02T10:40:37.629Z,10.20
2018-10-02T10:43:05.491Z,10.30
2018-10-02T10:45:33.442Z,10.30
2018-10-02T10:48:01.447Z,10.30
2018-10-02T10:50:29.345Z,10.40
2018-10-02T10:52:57.328Z,10.40
2018-10-02T10:55:28.498Z,10.40
2018-10-02T10:57:56.452Z,10.40
2018-10-02T11:00:24.460Z,10.30
2018-10-02T11:02:52.477Z,10.10
2018-10-02T11:05:20.418Z,10.20
2018-10-02T11:07:48.389Z,10.30
2018-10-02T11:10:17.691Z,10.20
2018-10-02T11:12:45.871Z,10.20
2018-10-02T11:15:14.173Z,10.30
2018-10-02T11:17:42.060Z,10.30
2018-10-02T11:20:11.602Z,10.30
2018-10-02T11:22:39.531Z,10.40
2018-10-02T11:25:07.547Z,10.40
2018-10-02T11:27:35.448Z,10.40
2018-10-02T11:30:03.469Z,10.40
2018-10-02T11:32:31.436Z,10.50
2018-10-02T11:34:59.322Z,10.40
2018-10-02T11:37:27.244Z,10.40
2018-10-02T11:39:55.227Z,10.50
2018-10-02T11:42:23.176Z,10.60
2018-10-02T11:44:51.215Z,10.60
2018-10-02T11:47:19.052Z,10.70
2018-10-02T11:49:47.032Z,10.70
2018-10-02T11:52:14.861Z,10.70
2018-10-02T11:54:42.767Z,10.80
2018-10-02T11:57:10.728Z,10.90
2018-10-02T11:59:38.625Z,10.90
2018-10-02T12:02:06.717Z,11.00
2018-10-02T12:04:34.629Z,11.00
2018-10-02T12:07:02.589Z,11.10
2018-10-02T12:09:30.542Z,11.20
2018-10-02T12:11:58.405Z,11.30
2018-10-02T12:14:26.520Z,11.40
2018-10-02T12:16:54.332Z,11.40
2018-10-02T12:19:22.263Z,11.40
2018-10-02T12:21:50.196Z,11.40
2018-10-02T12:24:18.188Z,11.50
2018-10-02T12:26:46.133Z,11.50
2018-10-02T12:29:14.098Z,11.40
2018-10-02T12:31:42.078Z,11.30
2018-10-02T12:34:10.052Z,11.40
2018-10-02T12:36:37.997Z,11.40
2018-10-02T12:39:07.274Z,11.30
2018-10-02T12:41:38.170Z,11.40
2018-10-02T12:44:06.109Z,11.50
2018-10-02T12:46:34.048Z,11.40
2018-10-02T12:49:02.051Z,11.40
2018-10-02T12:51:30.038Z,11.50
2018-10-02T12:53:57.953Z,11.50
2018-10-02T12:56:25.848Z,11.40
2018-10-02T12:58:53.826Z,11.40
2018-10-02T13:01:21.822Z,11.40
2018-10-02T13:03:49.725Z,11.40
2018-10-02T13:06:17.653Z,11.50
2018-10-02T13:08:45.617Z,11.60
2018-10-02T13:11:13.524Z,11.70
2018-10-02T13:13:41.482Z,11.80
2018-10-02T13:16:09.465Z,11.90
2018-10-02T13:18:37.370Z,11.80
2018-10-02T13:21:05.294Z,11.70
2018-10-02T13:23:33.297Z,11.70
2018-10-02T13:26:01.254Z,11.80
2018-10-02T13:28:29.312Z,11.70
2018-10-02T13:30:57.296Z,11.70
2018-10-02T13:33:25.194Z,11.70
2018-10-02T13:35:53.081Z,11.80
2018-10-02T13:38:21.408Z,11.70
2018-10-02T13:40:49.366Z,11.80
2018-10-02T13:43:17.274Z,11.80
2018-10-02T13:45:45.219Z,11.80
2018-10-02T13:48:13.154Z,11.90
2018-10-02T13:50:41.643Z,11.80
2018-10-02T13:53:09.535Z,11.70
2018-10-02T13:55:37.485Z,11.70
2018-10-02T13:58:05.456Z,11.70
2018-10-02T14:00:33.444Z,11.70
2018-10-02T14:03:01.782Z,11.80
2018-10-02T14:05:29.729Z,11.80
2018-10-02T14:07:57.674Z,11.80
2018-10-02T14:10:25.627Z,11.90
2018-10-02T14:12:53.597Z,11.90
2018-10-02T14:15:21.613Z,12.00
2018-10-02T14:17:49.587Z,12.00
2018-10-02T14:20:17.549Z,12.10
2018-10-02T14:22:45.545Z,12.10
2018-10-02T14:25:13.500Z,11.90
2018-10-02T14:27:41.457Z,12.00
2018-10-02T14:30:09.417Z,12.00
2018-10-02T14:32:37.431Z,11.90
2018-10-02T14:35:05.412Z,12.00
2018-10-02T14:37:33.354Z,11.90
2018-10-02T14:40:01.323Z,11.90
2018-10-02T14:42:29.307Z,11.90
2018-10-02T14:44:57.279Z,11.80
2018-10-02T14:47:25.177Z,12.00
2018-10-02T14:49:53.094Z,12.00
2018-10-02T14:52:21.046Z,12.00
2018-10-02T14:54:49.036Z,12.00
2018-10-02T14:57:16.973Z,12.00
2018-10-02T14:59:44.932Z,12.10
2018-10-02T15:02:12.829Z,12.10
2018-10-02T15:04:40.862Z,12.20
2018-10-02T15:07:08.755Z,12.10
2018-10-02T15:09:36.685Z,12.20
2018-10-02T15:12:04.664Z,12.30
2018-10-02T15:14:32.568Z,12.30
2018-10-02T15:17:00.494Z,12.30
2018-10-02T15:19:28.509Z,12.30
2018-10-02T15:21:56.452Z,12.30
2018-10-02T15:24:24.356Z,12.20
2018-10-02T15:26:52.270Z,12.10
2018-10-02T15:29:20.240Z,12.10
2018-10-02T15:31:48.186Z,12.20
2018-10-02T15:34:16.092Z,12.20
2018-10-02T15:36:44.101Z,12.10
2018-10-02T15:39:12.038Z,12.10
2018-10-02T15:41:40.259Z,12.10
2018-10-02T15:44:08.581Z,12.10
2018-10-02T15:46:36.497Z,12.00
2018-10-02T15:49:04.481Z,12.00
2018-10-02T15:51:32.449Z,12.00
2018-10-02T15:54:00.633Z,12.00
2018-10-02T15:56:28.624Z,12.00
2018-10-02T15:58:56.551Z,12.00
2018-10-02T16:01:24.537Z,11.90
2018-10-02T16:03:52.433Z,11.90
2018-10-02T16:06:20.380Z,11.90
2018-10-02T16:08:48.319Z,12.00
2018-10-02T16:11:16.316Z,11.90
2018-10-02T16:13:44.244Z,11.90
2018-10-02T16:16:12.172Z,11.90
2018-10-02T16:18:40.099Z,11.90
2018-10-02T16:21:08.108Z,12.00
2018-10-02T16:23:36.041Z,12.00
2018-10-02T16:26:03.960Z,12.00
2018-10-02T16:28:31.861Z,11.90
2018-10-02T16:30:59.745Z,11.80
2018-10-02T16:33:27.645Z,11.90
2018-10-02T16:35:55.629Z,11.80
2018-10-02T16:38:23.592Z,11.80
2018-10-02T16:40:51.619Z,11.90
2018-10-02T16:43:19.451Z,11.90
2018-10-02T16:45:47.363Z,11.90
2018-10-02T16:48:15.288Z,11.80
2018-10-02T16:50:43.226Z,11.80
2018-10-02T16:53:11.157Z,11.70
2018-10-02T16:55:39.095Z,11.70
2018-10-02T16:58:07.039Z,11.70
2018-10-02T17:00:35.001Z,11.80
2018-10-02T17:03:02.954Z,11.70
2018-10-02T17:05:31.033Z,11.70
2018-10-02T17:07:58.941Z,11.70
2018-10-02T17:10:26.860Z,11.60
2018-10-02T17:12:54.780Z,11.60
2018-10-02T17:15:22.673Z,11.70
2018-10-02T17:17:50.565Z,11.70
2018-10-02T17:20:18.477Z,11.60
2018-10-02T17:22:46.373Z,11.60
2018-10-02T17:25:14.323Z,11.50
2018-10-02T17:27:42.248Z,11.50
2018-10-02T17:30:10.147Z,11.50
2018-10-02T17:32:38.041Z,11.60
2018-10-02T17:35:05.973Z,11.70
2018-10-02T17:37:33.924Z,11.60
2018-10-02T17:40:01.911Z,11.60
2018-10-02T17:42:29.829Z,11.50
2018-10-02T17:44:57.740Z,11.50
2018-10-02T17:47:25.636Z,11.50
2018-10-02T17:49:53.766Z,11.50
2018-10-02T17:52:21.669Z,11.40
2018-10-02T17:54:49.596Z,11.40
2018-10-02T17:57:17.472Z,11.50
2018-10-02T17:59:45.397Z,11.50
2018-10-02T18:02:13.330Z,11.50
2018-10-02T18:04:41.301Z,11.50
2018-10-02T18:07:09.372Z,11.50
2018-10-02T18:09:37.244Z,11.60
2018-10-02T18:12:05.198Z,11.60
2018-10-02T18:14:33.296Z,11.60
2018-10-02T18:17:01.220Z,11.50
2018-10-02T18:19:29.177Z,11.50
2018-10-02T18:21:57.059Z,11.50
2018-10-02T18:24:24.949Z,11.60
2018-10-02T18:26:52.841Z,11.60
2018-10-02T18:29:20.718Z,11.70
2018-10-02T18:31:48.763Z,11.70
2018-10-02T18:34:16.734Z,11.70
2018-10-02T18:36:44.701Z,11.90
2018-10-02T18:39:12.664Z,11.90
2018-10-02T18:41:40.682Z,11.90
2018-10-02T18:44:08.637Z,11.90
2018-10-02T18:46:36.677Z,11.90
2018-10-02T18:49:04.934Z,11.90
2018-10-02T18:51:32.867Z,11.90
2018-10-02T18:54:00.759Z,11.90
2018-10-02T18:56:28.760Z,11.90
2018-10-02T18:58:56.723Z,11.90
2018-10-02T19:01:24.693Z,11.90
2018-10-02T19:03:52.664Z,11.90
2018-10-02T19:06:20.621Z,12.00
2018-10-02T19:08:54.166Z,12.00
2018-10-02T19:11:27.548Z,12.00
2018-10-02T19:13:55.546Z,11.90
2018-10-02T19:16:31.339Z,11.90
2018-10-02T19:18:59.364Z,11.90
2018-10-02T19:21:27.628Z,11.90
2018-10-02T19:23:55.913Z,11.90
2018-10-02T19:26:25.660Z,11.90
2018-10-02T19:28:53.651Z,11.90
2018-10-02T19:31:27.289Z,11.90
2018-10-02T19:33:55.649Z,11.90
2018-10-02T19:36:23.593Z,11.90
2018-10-02T19:39:27.674Z,11.90
2018-10-02T19:41:55.881Z,11.90
2018-10-02T19:44:23.872Z,11.90
2018-10-02T19:46:54.178Z,11.90
2018-10-02T19:49:23.515Z,11.80
2018-10-02T19:51:57.257Z,11.80
2018-10-02T19:54:25.649Z,11.70
2018-10-02T19:56:53.551Z,11.70
2018-10-02T19:59:21.826Z,11.70
2018-10-02T20:01:49.745Z,11.60
2018-10-02T20:04:17.665Z,11.50
2018-10-02T20:06:45.613Z,11.50
2018-10-02T20:09:13.600Z,11.40
2018-10-02T20:11:41.481Z,11.30
2018-10-02T20:14:10.277Z,11.30
2018-10-02T20:16:38.337Z,11.20
2018-10-02T20:19:06.357Z,11.20
2018-10-02T20:21:34.541Z,11.20
2018-10-02T20:24:02.495Z,11.20
2018-10-02T20:26:30.702Z,11.30
2018-10-02T20:28:58.741Z,11.50
2018-10-02T20:31:26.945Z,11.40
2018-10-02T20:33:54.853Z,11.40
2018-10-02T20:36:22.816Z,11.50
2018-10-02T20:38:50.748Z,11.40
2018-10-02T20:41:18.685Z,11.40
2018-10-02T20:43:46.669Z,11.40
2018-10-02T20:46:14.562Z,11.40
2018-10-02T20:48:42.468Z,11.50
2018-10-02T20:51:10.457Z,11.50
2018-10-02T20:53:38.342Z,11.40
2018-10-02T20:56:06.222Z,11.50
2018-10-02T20:58:34.178Z,11.50
2018-10-02T21:01:02.093Z,11.50
2018-10-02T21:03:29.993Z,11.50
2018-10-02T21:05:57.899Z,11.40
2018-10-02T21:08:25.838Z,11.40
2018-10-02T21:10:53.825Z,11.40
2018-10-02T21:13:21.816Z,11.50
2018-10-02T21:15:49.734Z,11.50
2018-10-02T21:18:17.822Z,11.50
2018-10-02T21:20:45.818Z,11.40
2018-10-02T21:23:13.764Z,11.30
2018-10-02T21:25:41.679Z,11.40
2018-10-02T21:28:09.569Z,11.30
2018-10-02T21:30:37.535Z,11.30
2018-10-02T21:33:05.466Z,11.30
2018-10-02T21:35:33.346Z,11.30
2018-10-02T21:38:01.280Z,11.30
2018-10-02T21:40:29.356Z,11.20
2018-10-02T21:42:57.171Z,11.20
2018-10-02T21:45:25.038Z,11.20
2018-10-02T21:47:53.029Z,11.20
2018-10-02T21:50:20.890Z,11.30
2018-10-02T21:52:48.782Z,11.30
2018-10-02T21:55:16.730Z,11.20
2018-10-02T21:57:44.654Z,11.30
2018-10-02T22:00:12.685Z,11.30
2018-10-02T22:02:40.662Z,11.30
2018-10-02T22:05:08.605Z,11.20
2018-10-02T22:07:36.531Z,11.30
2018-10-02T22:10:04.561Z,11.20
2018-10-02T22:12:32.464Z,11.20
2018-10-02T22:15:00.417Z,11.10
2018-10-02T22:17:29.645Z,11.10
2018-10-02T22:19:57.525Z,11.20
2018-10-02T22:22:25.437Z,11.20
2018-10-02T22:24:53.437Z,11.10
2018-10-02T22:27:21.305Z,11.10
2018-10-02T22:29:49.245Z,11.10
2018-10-02T22:32:17.152Z,11.10
2018-10-02T22:34:45.105Z,11.00
2018-10-02T22:37:13.008Z,11.00
2018-10-02T22:39:40.956Z,11.00
2018-10-02T22:42:08.802Z,10.90
2018-10-02T22:44:36.745Z,10.90
2018-10-02T22:47:04.869Z,10.90
2018-10-02T22:49:32.758Z,10.90
2018-10-02T22:52:00.665Z,11.00
2018-10-02T22:54:28.587Z,10.90
2018-10-02T22:56:56.518Z,10.80
2018-10-02T22:59:24.406Z,10.90
2018-10-02T23:01:52.359Z,10.90
2018-10-02T23:04:20.254Z,10.90
2018-10-02T23:06:48.225Z,10.90
2018-10-02T23:09:16.200Z,10.80
2018-10-02T23:11:44.128Z,10.90
2018-10-02T23:14:12.020Z,10.90
2018-10-02T23:16:39.981Z,10.90
2018-10-02T23:19:07.861Z,10.90
2018-10-02T23:21:35.789Z,10.90
2018-10-02T23:24:03.733Z,10.90
2018-10-02T23:26:31.645Z,11.00
2018-10-02T23:28:59.755Z,11.00
2018-10-02T23:31:28.074Z,11.00
2018-10-02T23:33:56.047Z,11.00
2018-10-02T23:36:23.933Z,10.90
2018-10-02T23:38:51.903Z,10.90
2018-10-02T23:41:19.849Z,10.90
2018-10-02T23:43:47.795Z,11.00
2018-10-02T23:46:15.717Z,11.00
2018-10-02T23:48:43.612Z,11.00
2018-10-02T23:51:11.486Z,11.00
2018-10-02T23:53:39.452Z,11.00
2018-10-02T23:56:10.198Z,11.00
2018-10-02T23:58:38.116Z,11.00
